Time;durP1;ratioP1;P1;durP2;ratioP2;P2;SDS_P1;SDS_P2;PMS_P1;PMS_P2;Temp;Humidity;BMP_temperature;BMP_pressure;BME280_temperature;BME280_humidity;BME280_pressure;Samples;Min_cycle;Max_cycle;Signal;HPM_P1;HPM_P2
2023/12/07 00:00:17;;;;;;;29.63;12.10;;;;;;;1.27;100.00;101195.25;5992648;28;20037;-75
2023/12/07 00:03:13;;;;;;;33.45;11.75;;;;;;;1.29;100.00;101196.00;6026660;28;20042;-76
2023/12/07 00:06:08;;;;;;;33.60;12.37;;;;;;;1.25;100.00;101191.00;6033561;28;20057;-76
2023/12/07 00:09:04;;;;;;;30.17;11.43;;;;;;;1.23;100.00;101193.69;6009300;28;20312;-75
2023/12/07 00:11:59;;;;;;;33.10;12.35;;;;;;;1.26;100.00;101193.53;5972366;28;1071570;-73
2023/12/07 00:14:54;;;;;;;36.53;14.50;;;;;;;1.29;100.00;101203.00;6027133;28;20042;-75
2023/12/07 00:17:50;;;;;;;30.17;10.77;;;;;;;1.30;100.00;101204.69;6010479;28;20390;-75
2023/12/07 00:20:45;;;;;;;30.87;12.47;;;;;;;1.27;100.00;101194.38;6008795;28;20317;-74
2023/12/07 00:23:40;;;;;;;31.00;11.17;;;;;;;1.28;100.00;101196.91;6026486;28;20108;-74
2023/12/07 00:26:35;;;;;;;27.83;11.53;;;;;;;1.26;100.00;101197.91;6028297;28;20030;-76
2023/12/07 00:29:31;;;;;;;34.73;11.67;;;;;;;1.30;100.00;101205.53;6027325;28;20386;-75
2023/12/07 00:32:27;;;;;;;34.28;12.43;;;;;;;1.32;100.00;101213.28;6026938;28;20373;-75
2023/12/07 00:35:22;;;;;;;34.85;13.00;;;;;;;1.31;100.00;101216.81;6028050;28;20034;-75
2023/12/07 00:38:17;;;;;;;33.63;11.60;;;;;;;1.31;100.00;101212.44;6027550;28;20075;-74
2023/12/07 00:41:13;;;;;;;33.47;12.43;;;;;;;1.33;100.00;101225.44;6007462;28;20022;-76
2023/12/07 00:44:08;;;;;;;30.77;11.52;;;;;;;1.30;100.00;101228.19;6027852;28;20029;-73
2023/12/07 00:47:04;;;;;;;32.27;11.80;;;;;;;1.34;100.00;101224.50;6026323;28;20026;-74
2023/12/07 00:49:59;;;;;;;35.72;12.43;;;;;;;1.33;100.00;101223.69;6026952;28;20390;-74
2023/12/07 00:52:54;;;;;;;35.67;12.33;;;;;;;1.33;100.00;101228.06;6026485;28;20072;-77
2023/12/07 00:55:50;;;;;;;35.23;12.27;;;;;;;1.32;100.00;101228.97;6011006;28;20033;-75
2023/12/07 00:58:45;;;;;;;29.50;11.20;;;;;;;1.32;100.00;101240.25;6027951;28;20038;-76
2023/12/07 01:01:40;;;;;;;29.97;12.43;;;;;;;1.31;100.00;101245.53;6026722;28;20034;-76
2023/12/07 01:04:35;;;;;;;32.23;11.27;;;;;;;1.30;100.00;101247.34;6027315;28;20030;-74
2023/12/07 01:07:31;;;;;;;30.50;12.53;;;;;;;1.33;100.00;101251.56;6027384;28;20038;-75
2023/12/07 01:10:26;;;;;;;36.50;11.70;;;;;;;1.32;100.00;101253.31;6026070;28;20702;-73
2023/12/07 01:13:21;;;;;;;32.13;12.83;;;;;;;1.30;100.00;101255.16;6026305;28;20327;-74
2023/12/07 01:16:17;;;;;;;33.87;12.27;;;;;;;1.30;100.00;101251.72;6026647;28;20034;-74
2023/12/07 01:19:14;;;;;;;35.47;12.03;;;;;;;1.35;100.00;101265.38;6026256;28;20038;-76
2023/12/07 01:22:09;;;;;;;29.90;11.00;;;;;;;1.35;100.00;101260.16;6025174;28;20692;-75
2023/12/07 01:25:05;;;;;;;29.80;11.03;;;;;;;1.36;100.00;101275.75;6031837;28;20041;-75
2023/12/07 01:28:01;;;;;;;27.95;10.70;;;;;;;1.30;100.00;101270.00;6026650;28;20389;-76
2023/12/07 01:30:56;;;;;;;29.37;11.23;;;;;;;1.34;100.00;101274.13;6027014;28;20034;-77
2023/12/07 01:33:51;;;;;;;28.57;10.67;;;;;;;1.26;100.00;101274.50;6026030;28;20065;-74
2023/12/07 01:36:46;;;;;;;32.10;12.33;;;;;;;1.33;100.00;101282.91;6027381;28;20046;-74
2023/12/07 01:39:43;;;;;;;29.53;11.93;;;;;;;1.31;100.00;101284.72;6026074;28;20093;-75
2023/12/07 01:42:38;;;;;;;29.92;10.10;;;;;;;1.31;100.00;101282.97;6025470;28;20038;-75
2023/12/07 01:45:33;;;;;;;26.58;11.15;;;;;;;1.32;100.00;101283.81;6026888;28;20034;-76
2023/12/07 01:48:29;;;;;;;25.20;10.47;;;;;;;1.27;100.00;101288.41;6025170;28;20054;-76
2023/12/07 01:51:25;;;;;;;24.67;10.13;;;;;;;1.30;100.00;101298.72;6031624;28;20030;-76
2023/12/07 01:54:21;;;;;;;24.50;10.47;;;;;;;1.34;100.00;101295.03;6025747;28;20030;-76
2023/12/07 01:57:16;;;;;;;28.08;10.27;;;;;;;1.30;100.00;101309.19;6025833;28;20329;-76
2023/12/07 02:00:13;;;;;;;31.97;9.50;;;;;;;1.30;100.00;101293.50;6025687;28;20461;-77
2023/12/07 02:03:09;;;;;;;25.55;10.30;;;;;;;1.29;100.00;101297.03;6039271;28;20029;-78
2023/12/07 02:06:04;;;;;;;27.40;9.67;;;;;;;1.27;100.00;101298.88;6028653;28;20460;-76
2023/12/07 02:09:00;;;;;;;26.33;10.43;;;;;;;1.35;100.00;101308.03;6017503;28;20285;-77
2023/12/07 02:11:55;;;;;;;27.40;10.88;;;;;;;1.32;100.00;101302.09;6026402;28;20477;-76
2023/12/07 02:14:53;;;;;;;29.80;11.47;;;;;;;1.28;100.00;101305.78;6024629;28;20467;-77
2023/12/07 02:18:01;;;;;;;28.33;10.63;;;;;;;1.39;100.00;101312.19;6009189;28;20602;-76
2023/12/07 02:21:22;;;;;;;23.30;9.07;;;;;;;1.36;100.00;101312.31;6024763;28;20030;-79
2023/12/07 02:24:20;;;;;;;28.08;9.57;;;;;;;1.34;100.00;101302.88;6019276;28;20026;-75
2023/12/07 02:27:16;;;;;;;24.48;9.88;;;;;;;1.39;100.00;101312.19;6026165;28;20168;-74
2023/12/07 02:30:12;;;;;;;27.38;9.85;;;;;;;1.35;100.00;101313.25;6024810;28;20412;-74
2023/12/07 02:33:08;;;;;;;26.23;9.35;;;;;;;1.31;100.00;101310.84;6012032;28;20038;-75
2023/12/07 02:36:05;;;;;;;26.90;9.73;;;;;;;1.37;100.00;101310.56;6025629;28;20040;-75
2023/12/07 02:39:01;;;;;;;30.45;11.25;;;;;;;1.34;100.00;101326.38;6025343;28;20497;-77
2023/12/07 02:41:56;;;;;;;30.63;9.38;;;;;;;1.41;100.00;101319.97;6013430;28;20109;-76
2023/12/07 02:44:53;;;;;;;28.25;10.88;;;;;;;1.40;100.00;101323.47;6019720;28;20034;-75
2023/12/07 02:47:48;;;;;;;28.88;10.57;;;;;;;1.37;100.00;101329.69;6028475;28;20041;-76
2023/12/07 02:50:43;;;;;;;32.20;11.40;;;;;;;1.40;100.00;101321.72;6024067;28;20030;-76
2023/12/07 02:53:39;;;;;;;28.83;10.50;;;;;;;1.35;100.00;101317.63;6024982;28;20038;-74
2023/12/07 02:56:34;;;;;;;28.83;11.30;;;;;;;1.36;100.00;101330.59;6024797;28;20033;-74
2023/12/07 02:59:29;;;;;;;28.60;10.00;;;;;;;1.37;100.00;101324.47;6025019;28;20038;-74
2023/12/07 03:02:25;;;;;;;25.03;8.73;;;;;;;1.37;100.00;101331.47;6024579;28;20046;-76
2023/12/07 03:05:22;;;;;;;33.38;10.95;;;;;;;1.35;100.00;101331.56;6024661;28;20035;-76
2023/12/07 03:08:18;;;;;;;28.25;10.88;;;;;;;1.31;100.00;101323.91;6023783;28;20049;-76
2023/12/07 03:11:13;;;;;;;27.80;10.23;;;;;;;1.35;100.00;101328.09;6024732;28;20455;-76
2023/12/07 03:14:08;;;;;;;29.20;10.53;;;;;;;1.30;100.00;101322.22;6025168;28;20085;-77
2023/12/07 03:17:04;;;;;;;23.30;9.20;;;;;;;1.34;100.00;101334.22;6024155;28;20037;-74
2023/12/07 03:19:59;;;;;;;28.45;10.77;;;;;;;1.30;100.00;101319.63;6023354;28;20108;-76
2023/12/07 03:22:54;;;;;;;26.30;9.50;;;;;;;1.34;100.00;101326.38;6029753;28;20053;-77
2023/12/07 03:25:50;;;;;;;24.17;10.47;;;;;;;1.34;100.00;101334.22;6023444;28;20525;-74
2023/12/07 03:28:45;;;;;;;23.80;8.90;;;;;;;1.32;100.00;101330.84;6022563;28;20281;-75
2023/12/07 03:31:40;;;;;;;26.35;10.27;;;;;;;1.34;100.00;101342.91;6023756;28;20035;-75
2023/12/07 03:34:36;;;;;;;24.90;9.30;;;;;;;1.33;100.00;101343.00;6022829;28;20034;-74
2023/12/07 03:37:31;;;;;;;23.37;9.57;;;;;;;1.31;100.00;101337.81;6024268;28;20080;-76
2023/12/07 03:40:26;;;;;;;24.90;9.47;;;;;;;1.31;100.00;101337.81;6024131;28;20080;-75
2023/12/07 03:43:22;;;;;;;25.27;9.17;;;;;;;1.31;100.00;101344.81;6024886;28;20041;-76
2023/12/07 03:46:17;;;;;;;25.47;9.83;;;;;;;1.31;100.00;101340.44;6026479;28;20089;-74
2023/12/07 03:49:12;;;;;;;28.20;10.70;;;;;;;1.33;100.00;101348.22;6024512;28;20375;-76
2023/12/07 03:52:07;;;;;;;24.77;9.17;;;;;;;1.28;100.00;101347.59;6024313;28;20026;-75
2023/12/07 03:55:03;;;;;;;24.50;9.43;;;;;;;1.30;100.00;101353.59;6024289;28;20036;-75
2023/12/07 03:57:58;;;;;;;23.15;9.93;;;;;;;1.31;100.00;101356.09;6025114;28;20026;-74
2023/12/07 04:00:53;;;;;;;27.23;9.33;;;;;;;1.33;100.00;101361.28;6008986;28;20026;-75
2023/12/07 04:03:49;;;;;;;23.43;9.60;;;;;;;1.29;100.00;101359.72;6024808;28;20509;-76
2023/12/07 04:06:44;;;;;;;24.77;9.75;;;;;;;1.27;100.00;101364.16;6007091;28;20033;-77
2023/12/07 04:09:40;;;;;;;22.90;9.20;;;;;;;1.28;100.00;101363.25;6007516;28;20038;-76
2023/12/07 04:12:35;;;;;;;25.03;10.47;;;;;;;1.31;100.00;101370.94;6023705;28;20482;-77
2023/12/07 04:15:31;;;;;;;24.33;9.27;;;;;;;1.27;100.00;101370.25;6023260;28;20037;-76
2023/12/07 04:18:26;;;;;;;25.27;9.50;;;;;;;1.25;100.00;101373.84;6024710;28;20056;-74
2023/12/07 04:21:21;;;;;;;22.67;9.15;;;;;;;1.24;100.00;101377.38;6022227;28;20034;-76
2023/12/07 04:24:17;;;;;;;23.40;9.32;;;;;;;1.26;100.00;101375.53;6024041;28;20093;-76
2023/12/07 04:27:12;;;;;;;29.98;12.65;;;;;;;1.23;100.00;101378.28;6032035;28;20041;-76
2023/12/07 04:30:08;;;;;;;22.27;9.73;;;;;;;1.22;100.00;101373.97;6022436;28;20062;-75
2023/12/07 04:33:04;;;;;;;20.63;8.13;;;;;;;1.24;100.00;101372.13;6024325;28;20022;-75
2023/12/07 04:35:59;;;;;;;21.35;7.65;;;;;;;1.24;100.00;101383.44;6023556;28;20030;-75
2023/12/07 04:38:54;;;;;;;20.73;7.93;;;;;;;1.17;100.00;101379.41;5991818;28;20034;-76
2023/12/07 04:41:50;;;;;;;23.33;9.60;;;;;;;1.26;100.00;101385.97;6027950;28;20049;-75
2023/12/07 04:44:46;;;;;;;21.52;8.50;;;;;;;1.24;100.00;101379.97;6028252;28;20076;-76
2023/12/07 04:47:41;;;;;;;21.10;8.80;;;;;;;1.21;100.00;101378.34;6028028;28;20030;-76
2023/12/07 04:50:36;;;;;;;22.07;8.83;;;;;;;1.20;100.00;101385.34;6024951;28;20049;-76
2023/12/07 04:53:32;;;;;;;22.17;8.30;;;;;;;1.24;100.00;101391.28;6029137;28;20517;-76
2023/12/07 04:56:27;;;;;;;22.10;8.93;;;;;;;1.20;100.00;101385.34;6027634;28;20034;-77
2023/12/07 04:59:22;;;;;;;19.70;7.60;;;;;;;1.25;100.00;101379.88;6026872;28;20030;-76
2023/12/07 05:02:18;;;;;;;24.93;8.40;;;;;;;1.23;100.00;101380.88;6027400;28;20033;-77
2023/12/07 05:05:14;;;;;;;23.83;8.48;;;;;;;1.22;100.00;101387.91;6030051;28;20034;-76
2023/12/07 05:08:09;;;;;;;20.33;7.97;;;;;;;1.23;100.00;101386.09;6027070;28;20038;-76
2023/12/07 05:11:06;;;;;;;20.57;8.37;;;;;;;1.27;100.00;101385.06;6027769;28;20057;-76
2023/12/07 05:14:03;;;;;;;21.15;8.23;;;;;;;1.22;100.00;101368.75;6025691;28;20505;-76
2023/12/07 05:16:58;;;;;;;24.27;8.27;;;;;;;1.32;100.00;101380.47;6028012;28;20057;-76
2023/12/07 05:19:53;;;;;;;22.30;8.53;;;;;;;1.24;100.00;101373.00;6028036;28;20644;-76
2023/12/07 05:22:49;;;;;;;22.37;8.70;;;;;;;1.29;100.00;101391.06;6019420;28;20314;-76
2023/12/07 05:25:44;;;;;;;21.40;8.13;;;;;;;1.28;100.00;101394.59;6028106;28;20038;-76
2023/12/07 05:28:40;;;;;;;21.17;7.88;;;;;;;1.28;100.00;101384.16;6034823;28;20115;-76
2023/12/07 05:31:36;;;;;;;19.17;8.43;;;;;;;1.31;100.00;101394.44;6030584;28;20080;-76
2023/12/07 05:34:31;;;;;;;21.90;8.57;;;;;;;1.25;100.00;101379.06;6033195;28;20030;-76
2023/12/07 05:37:27;;;;;;;17.77;8.03;;;;;;;1.24;100.00;101382.59;6030845;28;20026;-76
2023/12/07 05:40:23;;;;;;;21.30;8.33;;;;;;;1.18;100.00;101384.56;6035725;28;20026;-76
2023/12/07 05:43:18;;;;;;;21.05;7.82;;;;;;;1.18;100.00;101379.34;6029007;28;20711;-75
2023/12/07 05:46:13;;;;;;;24.47;8.97;;;;;;;1.14;100.00;101377.78;6026675;28;20041;-76
2023/12/07 05:49:09;;;;;;;22.50;8.60;;;;;;;1.18;100.00;101376.72;6024943;28;20031;-75
2023/12/07 05:52:04;;;;;;;26.00;9.20;;;;;;;1.13;100.00;101373.50;6025906;28;20092;-75
2023/12/07 05:55:00;;;;;;;21.60;9.40;;;;;;;1.11;100.00;101372.69;6008571;28;20030;-75
2023/12/07 05:57:55;;;;;;;21.95;9.30;;;;;;;1.22;100.00;101384.44;6027121;28;20142;-75
2023/12/07 06:00:51;;;;;;;23.00;9.23;;;;;;;1.13;100.00;101376.09;6028365;28;20030;-75
2023/12/07 06:03:46;;;;;;;23.97;10.03;;;;;;;1.12;100.00;101373.53;6025741;28;20726;-75
2023/12/07 06:06:41;;;;;;;20.93;8.40;;;;;;;1.13;100.00;101376.09;6028567;28;20022;-75
2023/12/07 06:09:36;;;;;;;21.40;8.83;;;;;;;1.22;100.00;101384.44;6025373;28;20030;-75
2023/12/07 06:12:32;;;;;;;20.83;8.93;;;;;;;1.15;100.00;101382.09;6025965;28;20037;-75
2023/12/07 06:15:27;;;;;;;26.37;10.53;;;;;;;1.19;100.00;101395.88;6027297;28;20031;-75
2023/12/07 06:18:22;;;;;;;24.10;9.10;;;;;;;1.14;100.00;101393.44;6026359;28;20277;-75
2023/12/07 06:21:18;;;;;;;22.87;9.27;;;;;;;1.18;100.00;101400.25;6027772;28;20037;-75
2023/12/07 06:24:14;;;;;;;24.20;8.97;;;;;;;1.16;100.00;101394.25;6032100;28;20109;-75
2023/12/07 06:27:09;;;;;;;24.25;8.43;;;;;;;1.13;100.00;101397.00;6025577;28;20324;-75
2023/12/07 06:30:05;;;;;;;25.13;9.35;;;;;;;1.13;100.00;101403.97;6023886;28;20030;-75
2023/12/07 06:33:01;;;;;;;18.95;8.18;;;;;;;1.14;100.00;101398.66;6025681;28;20057;-76
2023/12/07 06:35:56;;;;;;;23.17;8.63;;;;;;;1.08;100.00;101405.94;6025475;28;20359;-76
2023/12/07 06:38:51;;;;;;;21.03;8.30;;;;;;;1.15;100.00;101412.56;6025405;28;20502;-76
2023/12/07 06:41:47;;;;;;;22.75;9.00;;;;;;;1.10;100.00;101404.09;6008003;28;20030;-75
2023/12/07 06:44:49;;;;;;;21.53;8.63;;;;;;;1.15;100.00;101423.88;6026791;28;20413;-74
2023/12/07 06:47:44;;;;;;;26.67;8.93;;;;;;;1.18;100.00;101423.75;6003810;28;20026;-75
2023/12/07 06:50:39;;;;;;;20.47;8.37;;;;;;;1.15;100.00;101417.81;6023143;28;20045;-75
2023/12/07 06:53:35;;;;;;;21.10;7.97;;;;;;;1.17;100.00;101419.44;6002466;28;20046;-75
2023/12/07 06:56:30;;;;;;;23.52;8.00;;;;;;;1.17;100.00;101429.03;6026045;28;20030;-75
2023/12/07 06:59:25;;;;;;;21.83;8.70;;;;;;;1.16;100.00;101422.97;6028253;28;20096;-74
2023/12/07 07:02:21;;;;;;;23.57;9.10;;;;;;;1.05;100.00;101412.16;6024962;28;20026;-74
2023/12/07 07:05:16;;;;;;;17.67;7.57;;;;;;;1.16;100.00;101433.41;6026627;28;20038;-74
2023/12/07 07:08:11;;;;;;;19.83;8.53;;;;;;;1.17;100.00;101435.09;6024366;28;20753;-74
2023/12/07 07:11:12;;;;;;;21.63;8.53;;;;;;;1.19;100.00;101448.09;6025578;28;20034;-74
2023/12/07 07:14:08;;;;;;;23.85;9.82;;;;;;;1.15;100.00;101439.53;6023772;28;20121;-74
2023/12/07 07:17:04;;;;;;;21.70;8.70;;;;;;;1.14;100.00;101437.03;6024378;28;20084;-73
2023/12/07 07:19:59;;;;;;;23.23;8.07;;;;;;;1.17;100.00;101439.47;6025032;28;20031;-73
2023/12/07 07:22:54;;;;;;;21.70;9.40;;;;;;;1.22;100.00;101434.06;6027225;28;20535;-75
2023/12/07 07:25:50;;;;;;;20.13;7.43;;;;;;;1.28;100.00;101446.84;6028813;28;20377;-73
2023/12/07 07:28:45;;;;;;;17.23;7.57;;;;;;;1.25;100.00;101441.75;6025215;28;20494;-73
2023/12/07 07:31:40;;;;;;;21.97;8.67;;;;;;;1.29;100.00;101443.31;6023822;28;20038;-74
2023/12/07 07:34:36;;;;;;;21.43;8.77;;;;;;;1.29;100.00;101440.69;6024348;28;20057;-74
2023/12/07 07:37:31;;;;;;;22.37;8.73;;;;;;;1.28;100.00;101442.44;6023837;28;20108;-74
2023/12/07 07:40:26;;;;;;;35.40;9.30;;;;;;;1.33;100.00;101455.31;6023449;28;20104;-74
2023/12/07 07:43:22;;;;;;;23.13;8.20;;;;;;;1.37;100.00;101451.63;6024396;28;20033;-75
2023/12/07 07:46:17;;;;;;;25.25;9.65;;;;;;;1.34;100.00;101454.38;6031019;28;20033;-74
2023/12/07 07:49:12;;;;;;;22.10;8.20;;;;;;;1.34;100.00;101452.63;6028177;28;20033;-74
2023/12/07 07:52:08;;;;;;;28.40;9.60;;;;;;;1.37;100.00;101452.50;6024478;28;20109;-74
2023/12/07 07:55:04;;;;;;;26.02;9.90;;;;;;;1.31;100.00;101446.69;6023140;28;20645;-74
2023/12/07 07:57:59;;;;;;;25.95;10.25;;;;;;;1.39;100.00;101465.47;6024409;28;20026;-74
2023/12/07 08:00:55;;;;;;;29.03;10.43;;;;;;;1.41;100.00;101468.88;6022664;28;20039;-74
2023/12/07 08:03:50;;;;;;;23.93;9.17;;;;;;;1.41;100.00;101458.44;6023031;28;20026;-75
2023/12/07 08:06:45;;;;;;;24.23;9.23;;;;;;;1.42;100.00;101466.19;6024436;28;20034;-74
2023/12/07 08:09:41;;;;;;;23.90;9.43;;;;;;;1.47;100.00;101473.84;6023810;28;20273;-74
2023/12/07 08:12:36;;;;;;;26.03;9.50;;;;;;;1.47;100.00;101468.63;6024036;28;20045;-74
2023/12/07 08:15:32;;;;;;;24.63;9.60;;;;;;;1.55;100.00;101471.72;6032492;28;20064;-75
2023/12/07 08:18:27;;;;;;;32.78;10.85;;;;;;;1.58;100.00;101474.16;6033839;28;20492;-75
2023/12/07 08:21:24;;;;;;;23.97;10.20;;;;;;;1.55;100.00;101471.72;6027601;28;20047;-74
2023/12/07 08:24:19;;;;;;;24.85;10.23;;;;;;;1.56;100.00;101469.03;6031594;28;20018;-73
2023/12/07 08:27:14;;;;;;;26.10;9.20;;;;;;;1.67;100.00;101482.44;6027802;28;20470;-75
2023/12/07 08:30:10;;;;;;;21.97;8.50;;;;;;;1.65;100.00;101473.00;6027912;28;20386;-74
2023/12/07 08:33:05;;;;;;;24.93;8.83;;;;;;;1.71;100.00;101477.94;6032036;28;20045;-75
2023/12/07 08:36:01;;;;;;;27.77;9.60;;;;;;;1.73;100.00;101482.19;6027073;28;20285;-75
2023/12/07 08:38:57;;;;;;;25.73;10.73;;;;;;;1.71;100.00;101485.78;6010702;28;20493;-74
2023/12/07 08:41:52;;;;;;;24.40;9.87;;;;;;;1.75;100.00;101474.25;6026733;28;20034;-74
2023/12/07 08:44:47;;;;;;;26.63;9.60;;;;;;;1.78;100.00;101479.34;6027455;28;20042;-73
2023/12/07 08:47:43;;;;;;;23.50;9.10;;;;;;;1.84;100.00;101483.44;6030517;28;20030;-74
2023/12/07 08:50:38;;;;;;;23.20;9.27;;;;;;;1.88;100.00;101474.50;6025069;28;20493;-74
2023/12/07 08:53:35;;;;;;;24.77;10.37;;;;;;;1.83;100.00;101464.28;6018067;28;20042;-73
2023/12/07 08:56:30;;;;;;;22.77;9.82;;;;;;;1.96;100.00;101482.88;6030641;28;20453;-72
2023/12/07 08:59:26;;;;;;;29.30;10.53;;;;;;;1.90;100.00;101473.53;6022572;28;20069;-73
2023/12/07 09:02:21;;;;;;;21.67;9.30;;;;;;;1.93;100.00;101483.00;6012490;28;20042;-73
2023/12/07 09:05:16;;;;;;;22.00;9.13;;;;;;;1.98;100.00;101484.50;6028702;28;20760;-72
2023/12/07 09:08:12;;;;;;;24.92;8.80;;;;;;;2.04;100.00;101485.97;6026961;28;20081;-72
2023/12/07 09:11:07;;;;;;;25.63;9.95;;;;;;;2.05;100.00;101493.72;6026359;28;20095;-73
2023/12/07 09:14:02;;;;;;;25.53;10.07;;;;;;;2.12;100.00;101489.88;6026090;28;20422;-73
2023/12/07 09:16:58;;;;;;;24.57;10.13;;;;;;;2.15;100.00;101497.59;6025783;28;20274;-74
2023/12/07 09:19:53;;;;;;;19.47;8.57;;;;;;;2.17;100.00;101500.16;6026803;28;20033;-72
2023/12/07 09:22:49;;;;;;;23.60;8.75;;;;;;;2.11;100.00;101497.81;6025015;28;20469;-73
2023/12/07 09:25:45;;;;;;;21.47;8.77;;;;;;;2.12;100.00;101505.59;6021358;28;20026;-73
2023/12/07 09:28:41;;;;;;;25.80;9.48;;;;;;;2.15;100.00;101515.91;6026534;28;20277;-73
2023/12/07 09:31:36;;;;;;;24.23;9.03;;;;;;;2.08;100.00;101509.28;6025120;28;20037;-74
2023/12/07 09:34:31;;;;;;;26.03;9.73;;;;;;;2.17;100.00;101510.63;6009264;28;20285;-72
2023/12/07 09:37:26;;;;;;;23.20;8.90;;;;;;;2.20;100.00;101500.81;6024574;28;20046;-73
2023/12/07 09:40:24;;;;;;;25.53;9.13;;;;;;;2.29;100.00;101510.88;6022555;28;20034;-72
2023/12/07 09:43:19;;;;;;;27.48;8.95;;;;;;;2.30;100.00;101498.63;6017998;28;20033;-74
2023/12/07 09:46:15;;;;;;;24.90;8.43;;;;;;;2.34;100.00;101506.25;6023488;28;20030;-73
2023/12/07 09:49:10;;;;;;;28.67;9.55;;;;;;;2.33;100.00;101504.56;6023433;28;20026;-73
2023/12/07 09:52:07;;;;;;;21.57;9.27;;;;;;;2.36;100.00;101507.00;6015501;28;20034;-73
2023/12/07 09:55:03;;;;;;;21.42;8.32;;;;;;;2.35;100.00;101513.19;6022546;28;20052;-72
2023/12/07 09:57:59;;;;;;;22.77;8.63;;;;;;;2.41;100.00;101512.03;6027235;28;20030;-72
2023/12/07 10:00:55;;;;;;;22.57;9.10;;;;;;;2.39;100.00;101492.97;6010831;28;20139;-72
2023/12/07 10:04:23;;;;;;;24.77;9.52;;;;;;;2.46;100.00;101501.34;6028142;28;20675;-72
2023/12/07 10:07:32;;;;;;;22.63;8.68;;;;;;;2.41;100.00;101491.13;6022700;28;20067;-72
2023/12/07 10:10:27;;;;;;;28.00;8.90;;;;;;;2.48;100.00;101502.97;6024368;28;20034;-72
2023/12/07 10:13:23;;;;;;;23.73;9.33;;;;;;;2.45;100.00;101503.09;6023803;28;20041;-71
2023/12/07 10:16:19;;;;;;;22.90;8.97;;;;;;;2.47;100.00;101497.81;6028569;28;20639;-71
2023/12/07 10:19:17;;;;;;;23.30;9.02;;;;;;;2.52;100.00;101493.19;6015709;28;20038;-71
2023/12/07 10:22:15;;;;;;;19.25;8.18;;;;;;;2.55;100.00;101498.28;6022809;28;20390;-72
2023/12/07 10:25:11;;;;;;;20.55;8.13;;;;;;;2.63;100.00;101483.03;6025510;28;20064;-72
2023/12/07 10:28:07;;;;;;;21.15;8.05;;;;;;;2.62;100.00;101491.81;6029031;28;20066;-72
2023/12/07 10:31:03;;;;;;;20.33;8.25;;;;;;;2.71;100.00;101484.34;6008095;28;20457;-71
2023/12/07 10:33:59;;;;;;;24.40;8.60;;;;;;;2.71;100.00;101484.34;6027562;28;20466;-71
2023/12/07 10:36:55;;;;;;;22.02;8.77;;;;;;;2.78;100.00;101490.13;6025978;28;20053;-74
2023/12/07 10:39:51;;;;;;;19.95;8.77;;;;;;;2.76;100.00;101487.59;6029171;28;20084;-73
2023/12/07 10:42:48;;;;;;;21.87;8.90;;;;;;;2.80;100.00;101483.88;6025864;28;20442;-72
2023/12/07 10:45:44;;;;;;;22.55;8.75;;;;;;;2.82;100.00;101495.13;6006659;28;20119;-72
2023/12/07 10:48:41;;;;;;;22.58;8.93;;;;;;;2.78;100.00;101490.97;6008081;28;20041;-72
2023/12/07 10:51:50;;;;;;;20.92;8.55;;;;;;;2.79;100.00;101486.59;6008313;28;20396;-72
2023/12/07 10:55:20;;;;;;;22.02;8.45;;;;;;;2.92;100.00;101479.78;6006821;28;20077;-72
2023/12/07 10:58:16;;;;;;;18.67;7.95;;;;;;;2.86;100.00;101477.47;6010627;28;20465;-71
2023/12/07 11:01:11;;;;;;;21.05;8.60;;;;;;;2.88;100.00;101480.88;6024192;28;20057;-71
2023/12/07 11:04:07;;;;;;;18.17;8.70;;;;;;;2.82;100.00;101468.09;6008821;28;20034;-72
2023/12/07 11:07:07;;;;;;;19.00;7.97;;;;;;;2.89;100.00;101472.94;6022622;28;20121;-71
2023/12/07 11:10:12;;;;;;;19.15;7.78;;;;;;;2.97;100.00;101457.69;6015473;28;20393;-72
2023/12/07 11:13:27;;;;;;;20.95;8.60;;;;;;;2.93;100.00;101468.41;6014191;28;20547;-73
2023/12/07 11:16:30;;;;;;;22.63;8.52;;;;;;;2.94;100.00;101456.97;6007940;28;20454;-72
2023/12/07 11:19:32;;;;;;;21.27;8.35;;;;;;;2.89;100.00;101466.84;6019591;28;20045;-72
2023/12/07 11:22:27;;;;;;;20.52;8.00;;;;;;;2.93;100.00;101469.25;6023823;28;20069;-76
2023/12/07 11:25:22;;;;;;;17.17;7.33;;;;;;;2.94;100.00;101464.84;6028293;28;20042;-72
2023/12/07 11:28:18;;;;;;;18.10;8.10;;;;;;;3.03;100.00;101468.75;6025248;28;20022;-73
2023/12/07 11:31:13;;;;;;;20.88;8.40;;;;;;;3.01;100.00;101471.47;6025862;28;20114;-72
2023/12/07 11:34:13;;;;;;;18.57;7.40;;;;;;;2.92;100.00;101456.22;6023787;28;20052;-71
2023/12/07 11:37:09;;;;;;;20.13;7.45;;;;;;;2.95;100.00;101456.06;6031069;28;20284;-72
2023/12/07 11:40:05;;;;;;;20.70;7.43;;;;;;;2.93;100.00;101452.69;6024707;28;20370;-72
2023/12/07 11:43:01;;;;;;;19.80;6.90;;;;;;;2.99;100.00;101447.09;6024914;28;20034;-73
2023/12/07 11:45:56;;;;;;;14.50;6.60;;;;;;;2.96;100.00;101436.81;6008405;28;20058;-72
2023/12/07 11:48:52;;;;;;;16.37;7.07;;;;;;;3.10;100.00;101447.38;6022102;28;20478;-72
2023/12/07 11:51:47;;;;;;;16.92;7.10;;;;;;;3.14;100.00;101451.56;6023849;28;20038;-72
2023/12/07 11:54:46;;;;;;;17.63;7.43;;;;;;;3.04;100.00;101442.50;6025546;28;20385;-72
2023/12/07 11:57:42;;;;;;;16.38;6.78;;;;;;;3.11;100.00;101456.97;6019531;28;20045;-72
2023/12/07 12:00:37;;;;;;;17.73;7.13;;;;;;;3.04;100.00;101447.75;6028188;28;20038;-72
2023/12/07 12:03:33;;;;;;;16.73;6.53;;;;;;;3.08;100.00;101436.16;6002492;28;20682;-72
2023/12/07 12:06:30;;;;;;;19.83;7.22;;;;;;;3.12;100.00;101442.09;6026080;28;20038;-72
2023/12/07 12:09:25;;;;;;;15.05;6.78;;;;;;;3.13;100.00;101433.28;6021654;28;20030;-72
2023/12/07 12:12:20;;;;;;;17.30;7.07;;;;;;;3.07;100.00;101417.91;6023380;28;20038;-72
2023/12/07 12:15:16;;;;;;;19.27;7.93;;;;;;;3.10;100.00;101436.09;6010670;28;20039;-72
2023/12/07 12:18:13;;;;;;;18.30;6.88;;;;;;;3.08;100.00;101437.91;6035824;28;20085;-72
2023/12/07 12:21:09;;;;;;;18.23;6.75;;;;;;;3.15;100.00;101436.69;6029864;28;20037;-72
2023/12/07 12:24:10;;;;;;;14.27;6.85;;;;;;;3.25;100.00;101423.00;6022237;28;20030;-73
2023/12/07 12:27:06;;;;;;;18.65;8.23;;;;;;;3.23;100.00;101424.88;6026143;28;20030;-73
2023/12/07 12:30:02;;;;;;;19.10;7.30;;;;;;;3.19;100.00;101427.72;6023729;28;20046;-73
2023/12/07 12:32:57;;;;;;;17.85;6.45;;;;;;;3.30;100.00;101428.84;6025299;28;20501;-72
2023/12/07 12:36:26;;;;;;;20.75;7.53;;;;;;;3.22;100.00;101419.69;6024642;28;20026;-73
2023/12/07 12:39:29;;;;;;;20.48;8.98;;;;;;;3.08;100.00;101416.97;6009495;28;20390;-72
2023/12/07 12:42:25;;;;;;;19.60;7.45;;;;;;;3.15;100.00;101416.59;6006130;28;20034;-72
2023/12/07 12:45:21;;;;;;;17.85;7.35;;;;;;;3.31;100.00;101411.34;6019928;28;20038;-75
2023/12/07 12:48:16;;;;;;;19.77;8.38;;;;;;;3.36;100.00;101404.94;6031955;28;20062;-72
2023/12/07 12:51:14;;;;;;;21.33;8.17;;;;;;;3.31;100.00;101404.34;6023847;28;20081;-72
2023/12/07 12:54:11;;;;;;;19.58;8.60;;;;;;;3.21;100.00;101383.94;6019816;28;20389;-72
2023/12/07 12:57:07;;;;;;;20.90;9.13;;;;;;;3.33;100.00;101389.38;6020821;28;20482;-73
2023/12/07 13:00:02;;;;;;;24.35;9.88;;;;;;;3.33;100.00;101396.38;6024880;28;20038;-73
2023/12/07 13:03:03;;;;;;;20.90;8.20;;;;;;;3.33;100.00;101399.88;6016394;28;20038;-72
2023/12/07 13:05:59;;;;;;;20.73;8.45;;;;;;;3.27;100.00;101391.47;6021217;28;20413;-72
2023/12/07 13:08:54;;;;;;;24.50;9.50;;;;;;;3.23;100.00;101393.44;6025721;28;20080;-72
2023/12/07 13:11:49;;;;;;;23.35;8.73;;;;;;;3.33;100.00;101404.25;6025819;28;20034;-72
2023/12/07 13:14:46;;;;;;;21.67;8.87;;;;;;;3.40;100.00;101390.72;6022018;28;20039;-72
2023/12/07 13:17:42;;;;;;;21.90;7.93;;;;;;;3.46;100.00;101394.78;6026673;28;20041;-72
2023/12/07 13:20:38;;;;;;;23.50;8.63;;;;;;;3.42;100.00;101385.41;6026445;28;20401;-71
2023/12/07 13:23:34;;;;;;;17.20;7.07;;;;;;;3.28;100.00;101388.78;6024632;28;20038;-72
2023/12/07 13:26:29;;;;;;;23.35;8.05;;;;;;;3.20;100.00;101383.13;6025909;28;20054;-71